Главная страница
METAR-TAF:

METAR-TAF

Аэропорты :

Хейдрун, Норвегия

широта: 65-19-30N, долгота: 007-19-36E, высота над уровнем моря: 0 м

Текущие метеонаблюдения

Эта сводка был подготовлена 28 минут назад, в 22:20 UTC
Ветер 17 Узел от северо-северо-восточный
Температура 7°C
Влажность 100%
Давление 1014 hPa
Видимость: 0100 м
туман

METAR: ENHE 212220Z 03017KT 0100 FG VV001 07/07 Q1014 W///S4

Время: 00:48 (22:48 UTC)

Прогноз

Эта сводка был подготовлена 2 часа и 48 минут назад, в 20:00 UTC
Прогноз действительный с 21-го 21 UTC до 22-го 06 UTC
Ветер 20 Узел от северо-восточный
Видимость: 0100 м
на высоте 100 фута
туман
Вероятность 30%
С 21-го 21 UTC до 22-го 06 UTC
Видимость: 7000 м
Отдельные облака на высоте 400 фута

TAF: ENHE 212000Z 2121/2206 04020KT 0100 FG VV001 PROB30 2121/2206 7000 NSW SCT004

Метеонаблюдения и прогнозы для более 4000 аэропортов (сводки METAR и TAF).

Имеющиеся станции представлены на карте желтыми и красными точками.

Чтобы увидеть название станции, наведите на нее мышь.

Затем щелкните, чтобы увидеть метеонаблюдения и метеопрогнозы.

Управление картой: чтобы увеличить масштаб, щелкните зеленые кнопки с черным крестиком; чтобы уменьшить масштаб, щелкните зеленую кнопку с тире; для просмотра соседних карт щелкайте зеленые стрелки.


METAR-TAF: